createdAt,value
2023-12-28T00:00:00.064Z,4.60
2023-12-28T00:01:03.137Z,4.70
2023-12-28T00:02:05.235Z,4.50
2023-12-28T00:03:08.324Z,4.60
2023-12-28T00:04:10.852Z,4.60
2023-12-28T00:05:14.065Z,4.70
2023-12-28T00:06:16.461Z,4.60
2023-12-28T00:07:19.420Z,4.70
2023-12-28T00:08:21.820Z,4.70
2023-12-28T00:09:25.398Z,4.80
2023-12-28T00:10:29.686Z,4.80
2023-12-28T00:11:31.946Z,4.80
2023-12-28T00:12:35.376Z,5.80
2023-12-28T00:13:38.219Z,4.80
2023-12-28T00:14:41.378Z,5.90
2023-12-28T00:15:43.416Z,4.90
2023-12-28T00:16:46.703Z,5.30
2023-12-28T00:17:48.992Z,4.70
2023-12-28T00:18:52.316Z,4.70
2023-12-28T00:19:54.888Z,4.70
2023-12-28T00:20:58.251Z,4.60
2023-12-28T00:22:00.233Z,4.50
2023-12-28T00:23:03.689Z,5.90
2023-12-28T00:24:06.362Z,4.90
2023-12-28T00:25:11.057Z,4.40
2023-12-28T00:26:13.289Z,5.30
2023-12-28T00:27:16.650Z,4.40
2023-12-28T00:28:18.778Z,5.30
2023-12-28T00:29:22.091Z,5.30
2023-12-28T00:30:24.476Z,5.40
2023-12-28T00:31:26.855Z,5.50
2023-12-28T00:32:30.241Z,4.40
2023-12-28T00:33:32.465Z,4.30
2023-12-28T00:34:36.046Z,4.40
2023-12-28T00:35:38.083Z,4.40
2023-12-28T00:36:41.314Z,4.50
2023-12-28T00:37:44.027Z,4.40
2023-12-28T00:38:47.097Z,5.70
2023-12-28T00:39:51.201Z,5.30
2023-12-28T00:40:55.828Z,4.40
2023-12-28T00:41:58.054Z,4.50
2023-12-28T00:43:00.978Z,4.50
2023-12-28T00:44:03.410Z,4.40
2023-12-28T00:45:07.877Z,4.40
2023-12-28T00:46:09.963Z,4.40
2023-12-28T00:47:13.202Z,4.40
2023-12-28T00:48:15.577Z,4.40
2023-12-28T00:49:19.051Z,5.60
2023-12-28T00:50:21.122Z,4.30
2023-12-28T00:51:24.451Z,4.40
2023-12-28T00:52:26.686Z,4.30
2023-12-28T00:53:29.665Z,4.30
2023-12-28T00:54:31.828Z,4.20
2023-12-28T00:55:34.993Z,4.20
2023-12-28T00:56:38.422Z,4.20
2023-12-28T00:57:41.695Z,4.20
2023-12-28T00:58:45.308Z,4.30
2023-12-28T00:59:48.586Z,5.40
2023-12-28T01:00:55.023Z,4.40
2023-12-28T01:01:58.584Z,4.20
2023-12-28T01:03:00.578Z,4.20
2023-12-28T01:04:03.814Z,4.20
2023-12-28T01:05:06.615Z,5.00
2023-12-28T01:06:09.749Z,4.20
2023-12-28T01:07:12.235Z,4.60
2023-12-28T01:08:15.697Z,4.20
2023-12-28T01:09:18.100Z,4.30
2023-12-28T01:10:21.608Z,4.20
2023-12-28T01:11:23.863Z,4.20
2023-12-28T01:12:28.334Z,4.40
2023-12-28T01:13:31.886Z,4.20
2023-12-28T01:14:35.538Z,4.60
2023-12-28T01:15:37.747Z,5.30
2023-12-28T01:16:41.618Z,4.30
2023-12-28T01:17:43.739Z,4.80
2023-12-28T01:18:47.167Z,5.00
2023-12-28T01:19:49.804Z,4.30
2023-12-28T01:20:52.992Z,5.70
2023-12-28T01:21:55.037Z,4.20
2023-12-28T01:22:58.082Z,5.10
2023-12-28T01:24:00.414Z,4.20
2023-12-28T01:25:03.593Z,5.00
2023-12-28T01:26:05.860Z,4.20
2023-12-28T01:27:08.952Z,5.10
2023-12-28T01:28:12.780Z,4.10
2023-12-28T01:29:16.243Z,5.00
2023-12-28T01:30:18.660Z,4.10
2023-12-28T01:31:22.093Z,4.00
2023-12-28T01:32:24.235Z,4.00
2023-12-28T01:33:27.698Z,3.90
2023-12-28T01:34:30.076Z,4.80
2023-12-28T01:35:33.204Z,4.10
2023-12-28T01:36:35.882Z,4.20
2023-12-28T01:37:39.022Z,4.20
2023-12-28T01:38:41.391Z,5.40
2023-12-28T01:39:44.423Z,4.20
2023-12-28T01:40:47.097Z,4.10
2023-12-28T01:41:50.176Z,4.10
2023-12-28T01:42:52.615Z,4.10
2023-12-28T01:43:57.234Z,4.10
2023-12-28T01:44:59.506Z,4.10
2023-12-28T01:46:01.970Z,4.20
2023-12-28T01:47:05.592Z,4.90
2023-12-28T01:48:08.903Z,4.00
2023-12-28T01:49:12.132Z,3.90
2023-12-28T01:50:14.496Z,3.90
2023-12-28T01:51:18.568Z,4.00
2023-12-28T01:52:21.545Z,4.10
2023-12-28T01:53:25.073Z,4.00
2023-12-28T01:54:27.562Z,4.10
2023-12-28T01:55:31.745Z,4.10
2023-12-28T01:56:33.788Z,5.20
2023-12-28T01:57:37.332Z,4.10
2023-12-28T01:58:41.457Z,4.10
2023-12-28T01:59:46.309Z,5.30
2023-12-28T02:00:48.650Z,4.10
2023-12-28T02:01:51.973Z,4.10
2023-12-28T02:02:54.473Z,4.10
2023-12-28T02:03:57.694Z,4.10
2023-12-28T02:05:01.178Z,4.10
2023-12-28T02:06:04.986Z,4.70
2023-12-28T02:07:08.939Z,4.10
2023-12-28T02:08:11.449Z,4.10
2023-12-28T02:09:13.487Z,4.10
2023-12-28T02:10:17.014Z,4.10
2023-12-28T02:11:20.472Z,4.60
2023-12-28T02:12:23.649Z,4.00
2023-12-28T02:13:26.341Z,4.00
2023-12-28T02:14:28.695Z,4.10
2023-12-28T02:15:33.456Z,4.10
2023-12-28T02:16:40.515Z,4.10
2023-12-28T02:17:49.990Z,4.00
2023-12-28T02:18:55.878Z,4.00
2023-12-28T02:20:00.281Z,4.90
2023-12-28T02:21:04.537Z,4.00
2023-12-28T02:22:09.974Z,4.00
2023-12-28T02:23:12.311Z,3.90
2023-12-28T02:24:15.780Z,3.90
2023-12-28T02:25:19.352Z,3.90
2023-12-28T02:26:22.415Z,3.90
2023-12-28T02:27:24.540Z,3.90
2023-12-28T02:28:27.909Z,3.90
2023-12-28T02:29:30.279Z,3.90
2023-12-28T02:30:33.385Z,4.00
2023-12-28T02:31:44.543Z,4.10
2023-12-28T02:33:01.155Z,4.80
2023-12-28T02:34:10.393Z,4.10
2023-12-28T02:35:24.848Z,4.20
2023-12-28T02:36:28.561Z,4.10
2023-12-28T02:37:33.037Z,4.10
2023-12-28T02:38:39.070Z,4.00
2023-12-28T02:39:44.016Z,4.00
2023-12-28T02:40:48.749Z,4.00
2023-12-28T02:41:52.240Z,4.00
2023-12-28T02:42:54.720Z,4.10
2023-12-28T02:43:57.879Z,4.10
2023-12-28T02:44:59.945Z,4.10
2023-12-28T02:46:03.288Z,4.10
2023-12-28T02:47:05.301Z,5.80
2023-12-28T02:48:09.446Z,3.90
2023-12-28T02:49:13.377Z,3.90
2023-12-28T02:50:16.770Z,3.90
2023-12-28T02:51:18.841Z,3.80
2023-12-28T02:52:22.355Z,3.80
2023-12-28T02:53:24.501Z,3.90
2023-12-28T02:54:27.491Z,4.30
2023-12-28T02:55:29.729Z,4.00
2023-12-28T02:56:34.362Z,4.60
2023-12-28T02:57:38.947Z,3.90
2023-12-28T02:58:42.112Z,3.90
2023-12-28T02:59:44.279Z,3.90
2023-12-28T03:00:47.433Z,3.90
2023-12-28T03:01:49.696Z,3.90
2023-12-28T03:02:53.231Z,3.90
2023-12-28T03:03:55.505Z,3.90
2023-12-28T03:04:58.790Z,4.00
2023-12-28T03:06:01.040Z,4.00
2023-12-28T03:07:04.271Z,3.90
2023-12-28T03:08:06.794Z,3.90
2023-12-28T03:09:10.129Z,4.00
2023-12-28T03:10:14.683Z,5.30
2023-12-28T03:11:18.149Z,4.00
2023-12-28T03:12:21.679Z,5.00
2023-12-28T03:13:24.798Z,4.00
2023-12-28T03:14:27.186Z,3.90
2023-12-28T03:15:30.572Z,3.90
2023-12-28T03:16:35.109Z,3.90
2023-12-28T03:17:39.024Z,4.40
2023-12-28T03:18:41.302Z,3.80
2023-12-28T03:19:44.508Z,3.90
2023-12-28T03:20:46.730Z,3.90
2023-12-28T03:21:49.896Z,3.80
2023-12-28T03:22:52.342Z,3.80
2023-12-28T03:23:55.645Z,3.80
2023-12-28T03:24:57.726Z,3.80
2023-12-28T03:26:03.517Z,3.70
2023-12-28T03:27:06.308Z,3.70
2023-12-28T03:28:11.053Z,3.70
2023-12-28T03:29:13.008Z,4.80
2023-12-28T03:30:16.469Z,3.70
2023-12-28T03:31:19.122Z,3.70
2023-12-28T03:32:22.516Z,5.30
2023-12-28T03:33:24.814Z,3.80
2023-12-28T03:34:30.424Z,3.90
2023-12-28T03:35:32.532Z,3.90
2023-12-28T03:36:35.526Z,3.90
2023-12-28T03:37:37.767Z,4.60
2023-12-28T03:38:41.551Z,3.90
2023-12-28T03:39:43.778Z,3.90
2023-12-28T03:40:49.248Z,3.90
2023-12-28T03:41:51.638Z,4.40
2023-12-28T03:42:54.910Z,4.00
2023-12-28T03:43:58.522Z,4.80
2023-12-28T03:45:01.803Z,3.90
2023-12-28T03:46:04.050Z,3.90
2023-12-28T03:47:07.647Z,3.90
2023-12-28T03:48:10.145Z,3.80
2023-12-28T03:49:12.409Z,3.80
2023-12-28T03:50:15.752Z,3.80
2023-12-28T03:51:18.510Z,3.80
2023-12-28T03:52:21.621Z,3.90
2023-12-28T03:53:23.962Z,3.80
2023-12-28T03:54:26.324Z,3.90
2023-12-28T03:55:29.549Z,4.00
2023-12-28T03:56:31.935Z,4.00
2023-12-28T03:57:35.204Z,4.00
2023-12-28T03:58:37.456Z,4.00
2023-12-28T03:59:42.179Z,4.10
2023-12-28T04:00:44.744Z,4.00
2023-12-28T04:01:48.082Z,4.00
2023-12-28T04:02:51.790Z,3.90
2023-12-28T04:03:55.381Z,3.90
2023-12-28T04:04:59.814Z,3.90
2023-12-28T04:06:02.929Z,4.40
2023-12-28T04:07:08.400Z,3.90
2023-12-28T04:08:11.753Z,3.80
2023-12-28T04:09:14.300Z,3.80
2023-12-28T04:10:31.449Z,4.70
2023-12-28T04:11:33.928Z,3.90
2023-12-28T04:12:38.579Z,3.80
2023-12-28T04:13:40.817Z,3.80
2023-12-28T04:14:45.607Z,3.80
2023-12-28T04:15:47.970Z,3.80
2023-12-28T04:16:51.117Z,3.70
2023-12-28T04:17:53.261Z,3.70
2023-12-28T04:18:56.316Z,3.70
2023-12-28T04:19:58.747Z,3.70
2023-12-28T04:21:02.036Z,3.70
2023-12-28T04:22:04.529Z,3.80
2023-12-28T04:23:07.708Z,3.70
2023-12-28T04:24:09.735Z,3.70
2023-12-28T04:25:12.075Z,3.80
2023-12-28T04:26:15.308Z,3.80
2023-12-28T04:27:18.283Z,3.80
2023-12-28T04:28:20.358Z,3.90
2023-12-28T04:29:23.451Z,3.90
2023-12-28T04:30:28.896Z,3.80
2023-12-28T04:31:32.302Z,3.80
2023-12-28T04:32:34.690Z,3.80
2023-12-28T04:33:38.124Z,3.80
2023-12-28T04:34:40.244Z,3.80
2023-12-28T04:35:43.282Z,3.80
2023-12-28T04:36:48.100Z,5.00
2023-12-28T04:37:50.210Z,4.50
2023-12-28T04:38:53.529Z,3.70
2023-12-28T04:39:55.866Z,3.60
2023-12-28T04:40:59.112Z,3.60
2023-12-28T04:42:01.167Z,3.70
2023-12-28T04:43:04.378Z,3.70
2023-12-28T04:44:06.449Z,3.80
2023-12-28T04:45:11.151Z,3.80
2023-12-28T04:46:14.651Z,3.90
2023-12-28T04:47:17.928Z,3.90
2023-12-28T04:48:22.325Z,3.90
2023-12-28T04:49:25.708Z,3.90
2023-12-28T04:50:27.857Z,4.60
2023-12-28T04:51:31.014Z,3.80
2023-12-28T04:52:33.414Z,3.80
2023-12-28T04:53:36.765Z,3.80
2023-12-28T04:54:41.875Z,3.90
2023-12-28T04:55:45.316Z,3.80
2023-12-28T04:56:47.362Z,3.90
2023-12-28T04:57:50.428Z,3.80
2023-12-28T04:58:52.767Z,3.80
2023-12-28T04:59:55.999Z,3.70
2023-12-28T05:00:58.022Z,3.70
2023-12-28T05:02:02.788Z,3.70
2023-12-28T05:03:05.829Z,4.30
2023-12-28T05:04:09.252Z,3.70
2023-12-28T05:05:13.444Z,3.70
2023-12-28T05:06:16.656Z,3.70
2023-12-28T05:07:18.936Z,3.70
2023-12-28T05:08:22.021Z,3.70
2023-12-28T05:09:24.285Z,3.70
2023-12-28T05:10:28.439Z,4.00
2023-12-28T05:11:30.733Z,3.60
2023-12-28T05:12:43.247Z,3.60
2023-12-28T05:13:46.525Z,3.60
2023-12-28T05:14:49.597Z,3.60
2023-12-28T05:15:51.650Z,3.60
2023-12-28T05:16:55.127Z,3.50
2023-12-28T05:17:59.273Z,3.50
2023-12-28T05:19:02.866Z,3.50
2023-12-28T05:20:06.132Z,3.50
2023-12-28T05:21:09.126Z,3.50
2023-12-28T05:22:12.625Z,3.60
2023-12-28T05:23:15.741Z,3.60
2023-12-28T05:24:17.815Z,3.50
2023-12-28T05:25:20.824Z,4.40
2023-12-28T05:26:24.210Z,3.60
2023-12-28T05:27:27.347Z,3.60
2023-12-28T05:28:29.613Z,3.50
2023-12-28T05:29:31.824Z,3.50
2023-12-28T05:30:34.992Z,3.50
2023-12-28T05:31:37.824Z,3.60
2023-12-28T05:32:41.223Z,3.60
2023-12-28T05:33:44.753Z,3.70
2023-12-28T05:34:49.025Z,3.60
2023-12-28T05:35:51.417Z,3.70
2023-12-28T05:36:54.825Z,3.60
2023-12-28T05:37:57.240Z,3.60
2023-12-28T05:39:00.450Z,3.60
2023-12-28T05:40:02.703Z,3.60
2023-12-28T05:41:06.176Z,3.60
2023-12-28T05:42:08.383Z,3.60
2023-12-28T05:43:11.456Z,3.60
2023-12-28T05:44:13.457Z,3.60
2023-12-28T05:45:16.557Z,3.60
2023-12-28T05:46:18.848Z,3.50
2023-12-28T05:47:21.977Z,3.60
2023-12-28T05:48:24.168Z,2.50
2023-12-28T05:49:30.190Z,4.70
2023-12-28T05:50:32.785Z,3.70
2023-12-28T05:51:41.230Z,3.80
2023-12-28T05:52:43.670Z,4.10
2023-12-28T05:53:46.954Z,4.20
2023-12-28T05:54:49.480Z,3.70
2023-12-28T05:55:53.244Z,3.60
2023-12-28T05:56:55.475Z,4.10
2023-12-28T05:57:58.928Z,3.70
2023-12-28T05:59:01.413Z,3.70
2023-12-28T06:00:05.668Z,4.40
2023-12-28T06:01:08.918Z,3.70
2023-12-28T06:02:11.011Z,3.70
2023-12-28T06:03:14.402Z,4.50
2023-12-28T06:04:16.731Z,3.60
2023-12-28T06:05:21.319Z,3.60
2023-12-28T06:06:23.429Z,4.80
2023-12-28T06:07:27.023Z,4.40
2023-12-28T06:08:29.111Z,3.60
2023-12-28T06:09:31.321Z,3.60
2023-12-28T06:10:34.348Z,3.60
2023-12-28T06:11:36.627Z,5.10
2023-12-28T06:12:39.668Z,3.60
2023-12-28T06:13:41.966Z,3.60
2023-12-28T06:14:45.246Z,3.60
2023-12-28T06:15:47.547Z,3.60
2023-12-28T06:16:50.625Z,3.60
2023-12-28T06:17:52.948Z,3.60
2023-12-28T06:18:55.294Z,3.60
2023-12-28T06:19:58.481Z,3.60
2023-12-28T06:21:02.130Z,3.60
2023-12-28T06:22:05.471Z,3.60
2023-12-28T06:23:09.276Z,3.60
2023-12-28T06:24:12.694Z,3.60
2023-12-28T06:25:15.051Z,4.20
2023-12-28T06:26:21.709Z,3.50
2023-12-28T06:27:24.922Z,5.10
2023-12-28T06:28:27.155Z,3.40
2023-12-28T06:29:30.447Z,3.40
2023-12-28T06:30:32.598Z,4.60
2023-12-28T06:31:37.498Z,3.40
2023-12-28T06:32:41.138Z,3.40
2023-12-28T06:33:43.471Z,3.40
2023-12-28T06:34:46.965Z,3.40
2023-12-28T06:35:49.205Z,3.40
2023-12-28T06:36:53.753Z,4.30
2023-12-28T06:37:56.342Z,3.60
2023-12-28T06:38:59.852Z,3.60
2023-12-28T06:40:02.353Z,3.60
2023-12-28T06:41:11.797Z,3.70
2023-12-28T06:42:14.029Z,3.70
2023-12-28T06:43:16.915Z,3.70
2023-12-28T06:44:20.249Z,4.30
2023-12-28T06:45:28.166Z,3.70
2023-12-28T06:46:31.485Z,3.80
2023-12-28T06:47:33.751Z,3.60
2023-12-28T06:48:36.134Z,3.60
2023-12-28T06:49:39.614Z,3.50
2023-12-28T06:50:41.799Z,3.50
2023-12-28T06:51:47.533Z,3.50
2023-12-28T06:52:51.423Z,3.50
2023-12-28T06:53:55.006Z,3.50
2023-12-28T06:54:57.023Z,3.50
2023-12-28T06:56:00.345Z,3.60
2023-12-28T06:57:02.480Z,3.60
2023-12-28T06:58:05.173Z,4.60
2023-12-28T06:59:08.981Z,3.60
2023-12-28T07:00:12.757Z,3.60
2023-12-28T07:01:15.906Z,3.60
2023-12-28T07:02:18.635Z,5.00
2023-12-28T07:03:21.813Z,4.80
2023-12-28T07:04:26.569Z,3.70
2023-12-28T07:05:29.961Z,3.70
2023-12-28T07:06:32.452Z,3.70
2023-12-28T07:07:35.879Z,3.70
2023-12-28T07:08:39.378Z,5.10
2023-12-28T07:09:42.643Z,3.60
2023-12-28T07:10:44.706Z,3.60
2023-12-28T07:11:48.014Z,5.10
2023-12-28T07:12:50.493Z,3.60
2023-12-28T07:13:53.559Z,3.70
2023-12-28T07:14:55.583Z,3.60
2023-12-28T07:16:00.091Z,3.60
2023-12-28T07:17:03.012Z,3.60
2023-12-28T07:18:06.933Z,3.60
2023-12-28T07:19:09.410Z,3.60
2023-12-28T07:20:13.201Z,3.60
2023-12-28T07:21:15.398Z,3.60
2023-12-28T07:22:18.642Z,3.60
2023-12-28T07:23:20.874Z,3.60
2023-12-28T07:24:25.693Z,3.80
2023-12-28T07:25:27.777Z,3.60
2023-12-28T07:26:30.874Z,3.60
2023-12-28T07:27:33.213Z,3.70
2023-12-28T07:28:36.538Z,3.70
2023-12-28T07:29:38.966Z,3.70
2023-12-28T07:30:42.833Z,3.70
2023-12-28T07:31:45.402Z,3.80
2023-12-28T07:32:48.782Z,3.80
2023-12-28T07:33:51.128Z,3.80
2023-12-28T07:34:54.518Z,4.60
2023-12-28T07:35:56.726Z,5.30
2023-12-28T07:37:00.119Z,4.60
2023-12-28T07:38:02.767Z,4.00
2023-12-28T07:39:06.167Z,5.20
2023-12-28T07:40:10.787Z,4.50
2023-12-28T07:41:13.992Z,4.10
2023-12-28T07:42:16.545Z,5.20
2023-12-28T07:43:19.578Z,4.20
2023-12-28T07:44:21.557Z,4.20
2023-12-28T07:45:26.027Z,4.20
2023-12-28T07:46:28.380Z,5.20
2023-12-28T07:47:32.020Z,4.30
2023-12-28T07:48:34.180Z,4.30
2023-12-28T07:49:37.408Z,4.40
2023-12-28T07:50:39.565Z,4.40
2023-12-28T07:51:41.630Z,6.10
2023-12-28T07:52:46.550Z,4.40
2023-12-28T07:53:48.868Z,5.20
2023-12-28T07:54:51.996Z,4.40
2023-12-28T07:55:56.431Z,4.40
2023-12-28T07:56:59.594Z,4.40
2023-12-28T07:58:02.491Z,5.00
2023-12-28T07:59:05.008Z,4.50
2023-12-28T08:00:09.149Z,4.40
2023-12-28T08:01:12.239Z,4.50
2023-12-28T08:02:16.784Z,5.50
2023-12-28T08:03:20.808Z,4.50
2023-12-28T08:04:22.976Z,5.20
2023-12-28T08:05:25.974Z,4.60
2023-12-28T08:06:28.304Z,5.30
2023-12-28T08:07:31.588Z,5.70
2023-12-28T08:08:34.125Z,5.00
2023-12-28T08:09:37.641Z,5.40
2023-12-28T08:10:39.744Z,4.70
2023-12-28T08:11:44.522Z,4.80
2023-12-28T08:12:46.563Z,4.90
2023-12-28T08:13:49.816Z,5.50
2023-12-28T08:14:51.918Z,4.70
2023-12-28T08:15:54.962Z,4.70
2023-12-28T08:16:57.180Z,4.70
2023-12-28T08:18:00.572Z,4.70
2023-12-28T08:19:03.120Z,4.80
2023-12-28T08:20:07.791Z,4.80
2023-12-28T08:21:09.831Z,4.80
2023-12-28T08:22:11.926Z,4.80
2023-12-28T08:23:18.328Z,4.90
2023-12-28T08:24:21.113Z,4.90
2023-12-28T08:25:25.005Z,5.00
2023-12-28T08:26:27.527Z,5.30
2023-12-28T08:27:32.025Z,5.50
2023-12-28T08:28:34.527Z,5.00
2023-12-28T08:29:37.592Z,5.00
2023-12-28T08:30:40.293Z,6.10
2023-12-28T08:31:47.835Z,5.40
2023-12-28T08:32:50.655Z,4.90
2023-12-28T08:33:53.861Z,4.90
2023-12-28T08:34:56.061Z,5.40
2023-12-28T08:35:59.227Z,4.90
2023-12-28T08:37:01.336Z,4.80
2023-12-28T08:38:05.272Z,5.10
2023-12-28T08:39:08.377Z,4.80
2023-12-28T08:40:12.396Z,4.90
2023-12-28T08:41:20.606Z,4.90
2023-12-28T08:42:25.971Z,4.90
2023-12-28T08:43:29.760Z,5.00
2023-12-28T08:44:33.911Z,5.00
2023-12-28T08:45:37.377Z,5.80
2023-12-28T08:46:40.461Z,5.00
2023-12-28T08:47:42.787Z,5.90
2023-12-28T08:48:46.036Z,5.10
2023-12-28T08:49:48.548Z,5.10
2023-12-28T08:50:52.223Z,5.10
2023-12-28T08:51:54.410Z,5.10
2023-12-28T08:52:57.783Z,5.10
2023-12-28T08:53:59.876Z,5.20
2023-12-28T08:55:02.484Z,5.20
2023-12-28T08:56:14.754Z,5.20
2023-12-28T08:57:20.968Z,5.20
2023-12-28T08:58:30.305Z,5.20
2023-12-28T08:59:32.725Z,5.20
2023-12-28T09:00:35.898Z,6.40
2023-12-28T09:01:38.594Z,6.60
2023-12-28T09:02:41.979Z,5.60
2023-12-28T09:03:44.103Z,5.30
2023-12-28T09:04:47.457Z,6.90
2023-12-28T09:05:49.406Z,5.40
2023-12-28T09:06:52.481Z,5.40
2023-12-28T09:07:54.593Z,5.40
2023-12-28T09:08:57.872Z,5.40
2023-12-28T09:10:00.466Z,5.40
2023-12-28T09:11:03.883Z,5.40
2023-12-28T09:12:06.271Z,6.20
2023-12-28T09:13:09.322Z,5.50
2023-12-28T09:14:13.273Z,5.70
2023-12-28T09:15:15.638Z,7.10
2023-12-28T09:16:19.380Z,5.50
2023-12-28T09:17:23.264Z,5.50
2023-12-28T09:18:26.862Z,6.30
2023-12-28T09:19:29.473Z,5.50
2023-12-28T09:20:33.145Z,6.60
2023-12-28T09:21:36.112Z,6.70
2023-12-28T09:22:39.213Z,6.70
2023-12-28T09:23:41.648Z,5.50
2023-12-28T09:24:45.109Z,5.60
2023-12-28T09:25:47.575Z,5.60
2023-12-28T09:26:50.544Z,5.70
2023-12-28T09:27:52.907Z,6.40
2023-12-28T09:28:56.495Z,5.60
2023-12-28T09:30:00.237Z,5.90
2023-12-28T09:31:04.417Z,5.60
2023-12-28T09:32:07.531Z,5.70
2023-12-28T09:33:10.627Z,5.70
2023-12-28T09:34:13.031Z,5.70
2023-12-28T09:35:16.261Z,5.60
2023-12-28T09:36:18.441Z,5.60
2023-12-28T09:37:21.797Z,5.70
2023-12-28T09:38:24.091Z,6.40
2023-12-28T09:39:27.625Z,5.80
2023-12-28T09:40:30.066Z,7.30
2023-12-28T09:41:38.850Z,5.80
2023-12-28T09:42:49.817Z,5.80
2023-12-28T09:43:58.996Z,5.70
2023-12-28T09:45:02.889Z,5.80
2023-12-28T09:46:09.642Z,5.80
2023-12-28T09:47:14.138Z,5.80
2023-12-28T09:48:19.237Z,7.00
2023-12-28T09:49:23.293Z,6.10
2023-12-28T09:50:28.040Z,6.80
2023-12-28T09:51:30.377Z,5.80
2023-12-28T09:52:33.489Z,5.70
2023-12-28T09:53:35.768Z,5.80
2023-12-28T09:54:37.886Z,6.30
2023-12-28T09:55:41.114Z,7.20
2023-12-28T09:56:43.880Z,6.10
2023-12-28T09:57:47.260Z,6.30
2023-12-28T09:58:52.284Z,7.00
2023-12-28T09:59:54.848Z,5.90
2023-12-28T10:00:59.986Z,5.90
2023-12-28T10:02:02.889Z,6.70
2023-12-28T10:03:06.751Z,5.90
2023-12-28T10:04:09.984Z,5.90
2023-12-28T10:05:16.076Z,6.00
2023-12-28T10:06:18.562Z,6.70
2023-12-28T10:07:21.934Z,6.90
2023-12-28T10:08:24.374Z,6.60
2023-12-28T10:09:28.814Z,6.00
2023-12-28T10:10:31.361Z,6.00
2023-12-28T10:11:34.635Z,6.00
2023-12-28T10:12:37.686Z,6.00
2023-12-28T10:13:41.014Z,6.00
2023-12-28T10:14:43.318Z,6.00
2023-12-28T10:15:46.516Z,6.80
2023-12-28T10:16:50.290Z,6.00
2023-12-28T10:17:54.308Z,6.70
2023-12-28T10:18:58.688Z,6.80
2023-12-28T10:20:05.898Z,6.10
2023-12-28T10:21:08.665Z,6.90
2023-12-28T10:22:11.687Z,6.00
2023-12-28T10:23:13.797Z,6.90
2023-12-28T10:24:17.199Z,6.00
2023-12-28T10:25:19.466Z,6.10
2023-12-28T10:26:24.576Z,6.00
2023-12-28T10:27:27.118Z,6.00
2023-12-28T10:28:33.316Z,6.80
2023-12-28T10:29:35.806Z,6.70
2023-12-28T10:30:39.858Z,6.10
2023-12-28T10:31:44.116Z,6.00
2023-12-28T10:32:54.105Z,6.00
2023-12-28T10:34:01.649Z,7.00
2023-12-28T10:35:05.050Z,6.00
2023-12-28T10:36:10.798Z,6.00
2023-12-28T10:37:14.495Z,6.00
2023-12-28T10:38:19.226Z,7.70
2023-12-28T10:39:22.924Z,6.10
2023-12-28T10:40:27.726Z,6.70
2023-12-28T10:41:33.875Z,6.60
2023-12-28T10:42:54.178Z,6.10
2023-12-28T10:44:07.589Z,6.10
2023-12-28T10:45:13.286Z,6.10
2023-12-28T10:46:26.343Z,7.40
2023-12-28T10:47:33.708Z,6.10
2023-12-28T10:48:42.768Z,6.10
2023-12-28T10:49:48.125Z,7.10
2023-12-28T10:50:51.556Z,6.30
2023-12-28T10:51:55.972Z,6.10
2023-12-28T10:53:16.527Z,6.80
2023-12-28T10:54:35.126Z,6.70
2023-12-28T10:55:47.287Z,6.20
2023-12-28T10:57:03.576Z,7.30
2023-12-28T10:58:12.338Z,7.10
2023-12-28T10:59:21.894Z,6.90
2023-12-28T11:00:26.895Z,6.20
2023-12-28T11:01:38.806Z,6.20
2023-12-28T11:02:46.210Z,7.60
2023-12-28T11:03:59.438Z,7.40
2023-12-28T11:05:04.161Z,6.10
2023-12-28T11:06:08.736Z,6.20
2023-12-28T11:07:12.826Z,6.10
2023-12-28T11:08:17.226Z,6.60
2023-12-28T11:09:22.040Z,7.40
2023-12-28T11:10:26.912Z,6.20
2023-12-28T11:11:29.963Z,7.50
2023-12-28T11:12:33.873Z,7.00
2023-12-28T11:13:37.361Z,6.30
2023-12-28T11:14:42.361Z,6.30
2023-12-28T11:15:45.341Z,6.30
2023-12-28T11:16:48.666Z,7.80
2023-12-28T11:17:50.826Z,6.30
2023-12-28T11:18:56.199Z,7.00
2023-12-28T11:19:58.901Z,6.30
2023-12-28T11:21:02.307Z,7.10
2023-12-28T11:22:05.780Z,6.30
2023-12-28T11:23:09.685Z,6.40
2023-12-28T11:24:12.050Z,6.70
2023-12-28T11:25:18.794Z,7.30
2023-12-28T11:26:22.717Z,6.30
2023-12-28T11:27:26.222Z,6.80
2023-12-28T11:28:28.470Z,7.00
2023-12-28T11:29:32.442Z,6.40
2023-12-28T11:30:35.095Z,6.40
2023-12-28T11:31:38.804Z,7.00
2023-12-28T11:32:43.813Z,7.30
2023-12-28T11:33:48.347Z,7.20
2023-12-28T11:34:59.718Z,6.50
2023-12-28T11:36:02.862Z,6.60
2023-12-28T11:37:07.748Z,7.20
2023-12-28T11:38:13.479Z,7.60
2023-12-28T11:39:24.820Z,7.30
2023-12-28T11:40:28.314Z,6.50
2023-12-28T11:41:32.872Z,6.80
2023-12-28T11:42:36.066Z,7.20
2023-12-28T11:43:38.524Z,7.20
2023-12-28T11:44:45.238Z,6.50
2023-12-28T11:45:51.947Z,6.50
2023-12-28T11:46:55.070Z,6.60
2023-12-28T11:48:01.478Z,6.60
2023-12-28T11:49:09.120Z,6.60
2023-12-28T11:50:13.883Z,6.70
2023-12-28T11:51:18.530Z,6.70
2023-12-28T11:52:25.826Z,6.60
2023-12-28T11:53:28.327Z,6.70
2023-12-28T11:54:31.720Z,6.80
2023-12-28T11:55:34.401Z,7.80
2023-12-28T11:56:38.143Z,7.70
2023-12-28T11:57:40.624Z,7.50
2023-12-28T11:58:47.328Z,6.70
2023-12-28T11:59:54.396Z,6.70
2023-12-28T12:00:58.459Z,7.70
2023-12-28T12:02:01.430Z,6.70
2023-12-28T12:03:04.284Z,6.70
2023-12-28T12:04:09.389Z,6.70
2023-12-28T12:05:14.155Z,7.70
2023-12-28T12:06:18.168Z,6.70
2023-12-28T12:07:20.615Z,7.50
2023-12-28T12:08:23.952Z,6.70
2023-12-28T12:09:26.544Z,6.70
2023-12-28T12:10:31.132Z,6.80
2023-12-28T12:11:35.751Z,6.90
2023-12-28T12:12:37.967Z,6.70
2023-12-28T12:13:41.836Z,7.20
2023-12-28T12:14:44.529Z,7.80
2023-12-28T12:15:55.987Z,6.70
2023-12-28T12:17:00.018Z,7.00
2023-12-28T12:18:04.149Z,7.80
2023-12-28T12:19:07.799Z,7.40
2023-12-28T12:20:14.882Z,7.50
2023-12-28T12:21:17.318Z,6.80
2023-12-28T12:22:20.945Z,7.40
2023-12-28T12:23:23.262Z,7.50
2023-12-28T12:24:26.505Z,7.90
2023-12-28T12:25:30.202Z,6.80
2023-12-28T12:26:33.750Z,7.50
2023-12-28T12:27:37.316Z,7.50
2023-12-28T12:28:42.776Z,6.80
2023-12-28T12:29:46.254Z,6.80
2023-12-28T12:30:53.302Z,7.50
2023-12-28T12:31:55.407Z,7.50
2023-12-28T12:32:59.239Z,6.90
2023-12-28T12:34:01.982Z,6.90
2023-12-28T12:35:06.284Z,7.30
2023-12-28T12:36:10.005Z,6.90
2023-12-28T12:37:13.212Z,7.00
2023-12-28T12:38:15.653Z,8.20
2023-12-28T12:39:19.107Z,8.10
2023-12-28T12:40:22.549Z,7.00
2023-12-28T12:41:25.702Z,7.80
2023-12-28T12:42:27.802Z,7.00
2023-12-28T12:43:31.309Z,7.00
2023-12-28T12:44:33.436Z,7.00
2023-12-28T12:45:36.654Z,7.00
2023-12-28T12:46:38.753Z,7.30
2023-12-28T12:47:42.472Z,7.50
2023-12-28T12:48:55.363Z,7.80
2023-12-28T12:49:59.024Z,7.80
2023-12-28T12:51:03.568Z,7.00
2023-12-28T12:52:10.196Z,7.10
2023-12-28T12:53:12.688Z,7.30
2023-12-28T12:54:16.049Z,7.10
2023-12-28T12:55:18.949Z,7.10
2023-12-28T12:56:21.996Z,7.10
2023-12-28T12:57:24.596Z,7.10
2023-12-28T12:58:29.896Z,7.80
2023-12-28T12:59:33.151Z,7.10
2023-12-28T13:00:36.880Z,7.90
2023-12-28T13:01:39.010Z,7.70
2023-12-28T13:02:42.211Z,7.10
2023-12-28T13:03:46.816Z,7.50
2023-12-28T13:04:53.429Z,7.10
2023-12-28T13:05:57.241Z,7.30
2023-12-28T13:07:00.613Z,7.10
2023-12-28T13:08:04.751Z,7.30
2023-12-28T13:09:08.781Z,7.10
2023-12-28T13:10:12.275Z,7.10
2023-12-28T13:11:15.332Z,8.00
2023-12-28T13:12:17.379Z,8.10
2023-12-28T13:13:20.600Z,7.60
2023-12-28T13:14:22.664Z,7.90
2023-12-28T13:15:26.250Z,7.20
2023-12-28T13:16:28.501Z,7.90
2023-12-28T13:17:32.041Z,7.40
2023-12-28T13:18:36.840Z,7.70
2023-12-28T13:19:40.942Z,8.50
2023-12-28T13:20:44.537Z,8.20
2023-12-28T13:21:47.860Z,7.70
2023-12-28T13:22:50.220Z,8.40
2023-12-28T13:23:54.598Z,7.10
2023-12-28T13:24:57.593Z,8.50
2023-12-28T13:26:00.784Z,7.80
2023-12-28T13:27:03.090Z,7.70
2023-12-28T13:28:06.830Z,7.80
2023-12-28T13:29:08.938Z,7.90
2023-12-28T13:30:13.843Z,7.20
2023-12-28T13:31:16.085Z,7.10
2023-12-28T13:32:19.380Z,7.20
2023-12-28T13:33:22.190Z,8.20
2023-12-28T13:34:24.427Z,8.10
2023-12-28T13:35:27.785Z,7.20
2023-12-28T13:36:30.136Z,7.90
2023-12-28T13:37:33.308Z,7.30
2023-12-28T13:38:35.354Z,7.50
2023-12-28T13:39:40.687Z,7.20
2023-12-28T13:40:42.783Z,8.10
2023-12-28T13:41:46.236Z,7.20
2023-12-28T13:42:48.438Z,7.20
2023-12-28T13:43:51.539Z,7.20
2023-12-28T13:44:53.532Z,7.10
2023-12-28T13:45:56.791Z,7.10
2023-12-28T13:46:59.118Z,7.90
2023-12-28T13:48:02.225Z,7.10
2023-12-28T13:49:05.513Z,7.90
2023-12-28T13:50:10.073Z,7.90
2023-12-28T13:51:12.168Z,7.20
2023-12-28T13:52:15.516Z,8.00
2023-12-28T13:53:17.965Z,8.00
2023-12-28T13:54:22.480Z,7.30
2023-12-28T13:55:25.929Z,7.20
2023-12-28T13:56:29.593Z,7.20
2023-12-28T13:57:31.904Z,7.20
2023-12-28T13:58:35.128Z,8.00
2023-12-28T13:59:37.964Z,8.20
2023-12-28T14:00:43.137Z,8.10
2023-12-28T14:01:46.534Z,7.30
2023-12-28T14:02:49.841Z,7.70
2023-12-28T14:03:53.082Z,8.10
2023-12-28T14:04:55.674Z,8.20
2023-12-28T14:05:59.073Z,8.00
2023-12-28T14:07:01.296Z,7.20